Aviation Digital Data Service (ADDS)

Output produced by METARs form (1706 UTC 24 April 2017)
found at http://www.aviationweather.gov/adds/metars/
 
TAF FLMF 232200Z 2400/2506 13005KT CAVOK 
     TEMPO 2404/2408 08011KT 9999 SCT025